Time;durP1;ratioP1;P1;durP2;ratioP2;P2;SDS_P1;SDS_P2;PMS_P1;PMS_P2;Temp;Humidity;BMP_temperature;BMP_pressure;BME280_temperature;BME280_humidity;BME280_pressure;Samples;Min_cycle;Max_cycle;Signal;HPM_P1;HPM_P2
2022/11/25 00:00:48;;;;;;;13.90;4.07;;;;;;;;;;5074945;28;20086;-90
2022/11/25 00:03:14;;;;;;;18.42;3.85;;;;;;;;;;5074950;28;20043;-88
2022/11/25 00:05:41;;;;;;;16.60;4.25;;;;;;;;;;5058227;28;20040;-89
2022/11/25 00:08:07;;;;;;;11.70;3.22;;;;;;;;;;5058095;28;20040;-88
2022/11/25 00:10:33;;;;;;;24.08;4.07;;;;;;;;;;5058029;28;20497;-88
2022/11/25 00:12:59;;;;;;;8.60;2.83;;;;;;;;;;5058281;28;20150;-89
2022/11/25 00:15:25;;;;;;;12.02;3.35;;;;;;;;;;5074869;28;20083;-87
2022/11/25 00:17:51;;;;;;;14.35;4.07;;;;;;;;;;5074748;28;20090;-87
2022/11/25 00:20:20;;;;;;;10.27;3.25;;;;;;;;;;5075861;28;20408;-89
2022/11/25 00:22:46;;;;;;;9.48;3.50;;;;;;;;;;5078389;28;20471;-89
2022/11/25 00:25:12;;;;;;;8.15;3.30;;;;;;;;;;5061715;28;20085;-88
2022/11/25 00:27:38;;;;;;;14.48;3.95;;;;;;;;;;5061481;28;20048;-87
2022/11/25 00:30:04;;;;;;;15.68;4.43;;;;;;;;;;5061800;28;20144;-86
2022/11/25 00:32:30;;;;;;;12.95;3.28;;;;;;;;;;5061777;28;20040;-87
2022/11/25 00:34:56;;;;;;;13.43;3.95;;;;;;;;;;5061763;28;20539;-89
2022/11/25 00:37:22;;;;;;;11.82;3.90;;;;;;;;;;5061519;28;20044;-88
2022/11/25 00:39:48;;;;;;;11.82;4.90;;;;;;;;;;5078360;28;20047;-88
2022/11/25 00:44:59;;;;;;;10.50;3.92;;;;;;;;;;5096300;28;20123;-87
2022/11/25 00:47:26;;;;;;;14.70;4.45;;;;;;;;;;5078173;28;20482;-88
2022/11/25 00:49:53;;;;;;;12.15;4.55;;;;;;;;;;5077885;28;20044;-90
2022/11/25 00:52:25;;;;;;;11.73;3.65;;;7.40;99.90;;;;;;5061195;28;20055;-88
2022/11/25 00:54:51;;;;;;;16.45;5.15;;;;;;;;;;5061072;28;20051;-88
2022/11/25 00:57:18;;;;;;;15.18;4.85;;;;;;;;;;5061148;28;20056;-87
2022/11/25 00:59:44;;;;;;;12.30;4.45;;;;;;;;;;5077786;28;20523;-88
2022/11/25 01:02:11;;;;;;;12.55;3.88;;;;;;;;;;5061294;28;20127;-88
2022/11/25 01:04:37;;;;;;;12.23;3.75;;;;;;;;;;5077679;28;20492;-89
2022/11/25 01:07:04;;;;;;;8.95;3.28;;;;;;;;;;5061534;28;20044;-90
2022/11/25 01:09:30;;;;;;;16.17;4.68;;;;;;;;;;5060965;28;20510;-89
2022/11/25 01:11:56;;;;;;;7.88;3.65;;;;;;;;;;5060986;28;20044;-89
2022/11/25 01:14:22;;;;;;;10.30;3.67;;;;;;;;;;5061734;28;20066;-90
2022/11/25 01:16:49;;;;;;;17.55;4.28;;;;;;;;;;5061179;28;20488;-90
2022/11/25 01:19:15;;;;;;;16.00;4.22;;;;;;;;;;5060796;28;20040;-90
2022/11/25 01:21:41;;;;;;;16.13;3.70;;;;;;;;;;5077883;28;20046;-90
2022/11/25 01:24:07;;;;;;;17.98;5.38;;;;;;;;;;5077617;28;20058;-90
2022/11/25 01:26:34;;;;;;;10.35;3.80;;;;;;;;;;5061418;28;20131;-89
2022/11/25 01:29:02;;;;;;;15.43;4.45;;;;;;;;;;5060430;28;20059;-89
2022/11/25 01:31:30;;;;;;;20.33;4.00;;;7.50;99.90;;;;;;5059996;28;20105;-90
2022/11/25 01:33:58;;;;;;;10.60;3.88;;;;;;;;;;5076859;28;20444;-90
2022/11/25 01:36:24;;;;;;;15.30;3.92;;;;;;;;;;5061163;28;20100;-90
2022/11/25 01:38:51;;;;;;;17.00;4.07;;;;;;;;;;5060322;28;20492;-89
2022/11/25 01:41:18;;;;;;;11.10;4.10;;;;;;;;;;5060811;28;20048;-90
2022/11/25 01:44:01;;;;;;;14.10;4.28;;;;;;;;;;5060110;28;20127;-89
2022/11/25 01:46:30;;;;;;;17.65;4.50;;;;;;;;;;5060078;28;20114;-89
2022/11/25 01:49:06;;;;;;;7.78;3.55;;;;;;;;;;5076970;28;20189;-89
2022/11/25 01:51:40;;;;;;;12.57;4.95;;;;;;;;;;5060068;28;20629;-89
2022/11/25 01:54:07;;;;;;;;;;;7.50;99.90;;;;;;5061417;28;20048;-89
2022/11/25 01:56:37;;;;;;;13.30;3.95;;;;;;;;;;5059806;28;19977;-89
2022/11/25 01:59:04;;;;;;;15.60;4.47;;;;;;;;;;5076826;28;20052;-90
2022/11/25 02:01:30;;;;;;;15.75;4.18;;;;;;;;;;5076624;28;20048;-90
2022/11/25 02:03:57;;;;;;;12.02;4.22;;;;;;;;;;5060449;28;20369;-91
2022/11/25 02:06:25;;;;;;;11.60;5.13;;;;;;;;;;5076393;28;20044;-89
2022/11/25 02:08:53;;;;;;;12.77;3.90;;;;;;;;;;5076568;28;20103;-89
2022/11/25 02:11:20;;;;;;;12.57;4.00;;;;;;;;;;5059580;28;20093;-89
2022/11/25 02:13:48;;;;;;;10.68;4.63;;;;;;;;;;5076311;28;20123;-89
2022/11/25 02:16:14;;;;;;;16.73;4.60;;;;;;;;;;5076246;28;20044;-89
2022/11/25 02:18:40;;;;;;;19.30;5.18;;;;;;;;;;5059530;28;20131;-88
2022/11/25 02:21:07;;;;;;;14.70;4.20;;;;;;;;;;5076161;28;20035;-87
2022/11/25 02:23:40;;;;;;;14.98;4.32;;;7.50;99.90;;;;;;5059586;28;20541;-89
2022/11/25 02:26:06;;;;;;;;;;;7.50;99.90;;;;;;5060048;28;20051;-89
2022/11/25 02:28:33;;;;;;;10.85;4.30;;;;;;;;;;5059701;28;19920;-89
2022/11/25 02:30:59;;;;;;;10.75;3.80;;;;;;;;;;5076156;28;20056;-91
2022/11/25 02:33:26;;;;;;;18.60;3.95;;;;;;;;;;5059882;28;20040;-90
2022/11/25 02:35:54;;;;;;;19.40;3.95;;;7.60;99.90;;;;;;5059885;28;20119;-90
2022/11/25 02:38:33;;;;;;;16.10;4.32;;;;;;;;;;5076125;28;20048;-92
2022/11/25 02:41:13;;;;;;;13.82;5.72;;;;;;;;;;5076099;28;20086;-88
2022/11/25 02:43:40;;;;;;;20.38;4.13;;;;;;;;;;5058924;28;20047;-92
2022/11/25 02:46:16;;;;;;;11.25;4.10;;;;;;;;;;5076399;28;20338;-90
2022/11/25 02:48:43;;;;;;;15.32;4.32;;;;;;;;;;5059568;28;20044;-91
2022/11/25 02:51:11;;;;;;;15.73;4.55;;;;;;;;;;5094266;28;20044;-88
2022/11/25 02:53:37;;;;;;;15.13;4.60;;;;;;;;;;5076885;28;20154;-89
2022/11/25 02:56:03;;;;;;;12.30;4.25;;;;;;;;;;5058918;28;20044;-89
2022/11/25 02:58:30;;;;;;;10.93;4.90;;;;;;;;;;5059292;28;20157;-90
2022/11/25 03:00:56;;;;;;;13.23;4.55;;;;;;;;;;5075428;28;20036;-90
2022/11/25 03:03:22;;;;;;;17.85;4.95;;;;;;;;;;5058905;28;20044;-90
2022/11/25 03:05:48;;;;;;;13.75;4.68;;;;;;;;;;5058948;28;20039;-92
2022/11/25 03:08:14;;;;;;;18.52;5.00;;;;;;;;;;5059198;28;20044;-90
2022/11/25 03:10:40;;;;;;;15.60;4.50;;;;;;;;;;5075748;28;20047;-90
2022/11/25 03:13:07;;;;;;;11.95;4.90;;;;;;;;;;5076299;28;20113;-90
2022/11/25 03:15:34;;;;;;;13.38;4.57;;;;;;;;;;5059012;28;20044;-91
2022/11/25 03:18:00;;;;;;;14.70;4.70;;;;;;;;;;5093507;28;20036;-90
2022/11/25 03:20:26;;;;;;;18.77;5.10;;;;;;;;;;5075641;28;20496;-91
2022/11/25 03:22:55;;;;;;;15.82;5.75;;;;;;;;;;5075433;28;20048;-89
2022/11/25 03:25:21;;;;;;;14.35;4.43;;;;;;;;;;5058827;28;20048;-91
2022/11/25 03:27:47;;;;;;;17.55;5.22;;;;;;;;;;5075485;28;20056;-91
2022/11/25 03:30:15;;;;;;;16.55;4.93;;;;;;;;;;5075445;28;20059;-90
2022/11/25 03:32:41;;;;;;;10.60;4.78;;;;;;;;;;5058906;28;20136;-91
2022/11/25 03:35:07;;;;;;;17.58;4.78;;;;;;;;;;5058744;28;20515;-90
2022/11/25 03:37:33;;;;;;;15.68;4.80;;;;;;;;;;5058833;28;20059;-90
2022/11/25 03:39:59;;;;;;;13.75;5.07;;;;;;;;;;5059024;28;20044;-91
2022/11/25 03:42:25;;;;;;;15.48;4.97;;;;;;;;;;5059049;28;20048;-92
2022/11/25 03:44:51;;;;;;;16.88;5.40;;;;;;;;;;5059027;28;20059;-88
2022/11/25 03:47:17;;;;;;;14.82;5.20;;;;;;;;;;5059174;28;20083;-92
2022/11/25 03:49:43;;;;;;;12.40;4.07;;;;;;;;;;5058850;28;20043;-89
2022/11/25 03:52:09;;;;;;;17.38;5.28;;;;;;;;;;5059043;28;20044;-92
2022/11/25 03:54:35;;;;;;;10.10;4.38;;;;;;;;;;5059217;28;20123;-91
2022/11/25 03:57:01;;;;;;;16.17;4.55;;;;;;;;;;5062656;28;20075;-92
2022/11/25 03:59:27;;;;;;;10.77;4.32;;;;;;;;;;5080100;28;20075;-91
2022/11/25 04:01:53;;;;;;;9.30;4.38;;;;;;;;;;5062894;28;20488;-89
2022/11/25 04:04:19;;;;;;;17.50;5.13;;;;;;;;;;5063492;28;20039;-90
2022/11/25 04:06:45;;;;;;;10.55;4.72;;;;;;;;;;5079318;28;20101;-92
2022/11/25 04:09:11;;;;;;;7.75;4.53;;;;;;;;;;5062711;28;20043;-92
2022/11/25 04:14:22;;;;;;;13.77;6.13;;;;;;;;;;5079144;28;20047;-89
2022/11/25 04:16:48;;;;;;;14.60;5.28;;;;;;;;;;5079624;28;20451;-88
2022/11/25 04:19:14;;;;;;;10.85;5.38;;;;;;;;;;5062433;28;20036;-92
2022/11/25 04:21:40;;;;;;;22.63;6.03;;;;;;;;;;5062457;28;20048;-88
2022/11/25 04:24:06;;;;;;;10.85;4.32;;;;;;;;;;5063550;28;20053;-91
2022/11/25 04:26:32;;;;;;;12.25;5.00;;;;;;;;;;5079114;28;20553;-90
2022/11/25 04:29:01;;;;;;;15.35;5.47;;;;;;;;;;5059493;28;20052;-93
2022/11/25 04:31:28;;;;;;;17.85;5.68;;;;;;;;;;5059828;28;20052;-92
2022/11/25 04:33:54;;;;;;;15.60;7.00;;;;;;;;;;5074909;28;20037;-89
2022/11/25 04:36:19;;;;;;;11.18;5.68;;;;;;;;;;5075041;28;20063;-88
2022/11/25 04:38:46;;;;;;;13.70;5.95;;;;;;;;;;5074770;28;20473;-89
2022/11/25 04:41:12;;;;;;;18.67;6.53;;;;;;;;;;5058288;28;20082;-89
2022/11/25 04:43:38;;;;;;;18.77;6.22;;;;;;;;;;5058216;28;20063;-89
2022/11/25 04:46:04;;;;;;;25.60;6.25;;;;;;;;;;5074907;28;20044;-89
2022/11/25 04:48:30;;;;;;;13.38;6.10;;;;;;;;;;5075631;28;20052;-89
2022/11/25 04:50:56;;;;;;;16.13;6.93;;;;;;;;;;5057773;28;20290;-89
2022/11/25 04:53:22;;;;;;;27.48;7.28;;;;;;;;;;5074582;28;20436;-89
2022/11/25 04:55:48;;;;;;;21.75;5.60;;;;;;;;;;5057909;28;20512;-89
2022/11/25 04:59:38;;;;;;;20.02;7.22;;;;;;;;;;5058262;28;20515;-88
2022/11/25 05:01:01;;;;;;;21.00;8.27;;;;;;;;;;5074629;28;20461;-89
2022/11/25 05:03:27;;;;;;;12.90;6.82;;;;;;;;;;5075497;28;20048;-89
2022/11/25 05:05:53;;;;;;;13.48;6.45;;;;;;;;;;5058061;28;20374;-88
2022/11/25 05:08:19;;;;;;;18.70;5.72;;;;;;;;;;5056499;28;20107;-89
2022/11/25 05:10:45;;;;;;;16.02;6.75;;;;;;;;;;5057441;28;20042;-89
2022/11/25 05:13:11;;;;;;;12.90;6.10;;;;;;;;;;5057712;28;20044;-89
2022/11/25 05:15:37;;;;;;;20.23;7.35;;;;;;;;;;5058331;28;20123;-92
2022/11/25 05:18:03;;;;;;;14.35;5.68;;;;;;;;;;5058110;28;20474;-90
2022/11/25 05:20:29;;;;;;;13.10;6.72;;;;;;;;;;5058249;28;20044;-92
2022/11/25 05:22:55;;;;;;;19.92;6.90;;;;;;;;;;5057757;28;20043;-90
2022/11/25 05:25:23;;;;;;;19.42;7.53;;;;;;;;;;5057786;28;20045;-91
2022/11/25 05:27:49;;;;;;;17.33;6.22;;;;;;;;;;5073978;28;20107;-91
2022/11/25 05:30:15;;;;;;;20.15;6.85;;;;;;;;;;5057849;28;20044;-94
2022/11/25 05:32:43;;;;;;;18.75;6.45;;;;;;;;;;5057989;28;20045;-94
2022/11/25 05:35:09;;;;;;;21.02;6.60;;;;;;;;;;5057631;28;20123;-95
2022/11/25 05:37:35;;;;;;;18.90;7.22;;;;;;;;;;5057937;28;20048;-91
2022/11/25 05:40:01;;;;;;;20.17;6.47;;;;;;;;;;5057767;28;20037;-94
2022/11/25 05:42:28;;;;;;;15.27;6.60;;;;;;;;;;5058205;28;20048;-92
2022/11/25 05:44:54;;;;;;;18.60;7.57;;;;;;;;;;5074457;28;20047;-93
2022/11/25 05:47:20;;;;;;;17.05;6.80;;;;;;;;;;5059034;28;20048;-93
2022/11/25 05:49:46;;;;;;;14.00;5.90;;;;;;;;;;5057939;28;20051;-91
2022/11/25 05:52:13;;;;;;;20.75;5.95;;;;;;;;;;5074464;28;20044;-91
2022/11/25 05:54:39;;;;;;;13.77;6.03;;;;;;;;;;5074554;28;20047;-94
2022/11/25 05:57:05;;;;;;;13.88;5.88;;;;;;;;;;5057475;28;20098;-94
2022/11/25 05:59:31;;;;;;;17.48;7.07;;;;;;;;;;5058540;28;20041;-92
2022/11/25 06:01:57;;;;;;;17.52;5.85;;;;;;;;;;5058386;28;20114;-90
2022/11/25 06:04:23;;;;;;;13.40;5.85;;;;;;;;;;5074110;28;20101;-91
2022/11/25 06:06:49;;;;;;;19.80;6.20;;;;;;;;;;5057573;28;20448;-93
2022/11/25 06:09:15;;;;;;;13.93;5.53;;;;;;;;;;5057444;28;20063;-94
2022/11/25 06:11:41;;;;;;;19.98;5.85;;;;;;;;;;5056715;28;20137;-94
2022/11/25 06:14:07;;;;;;;22.48;6.38;;;;;;;;;;5057952;28;20048;-89
2022/11/25 06:16:33;;;;;;;16.90;6.10;;;;;;;;;;5073314;28;20048;-90
2022/11/25 06:19:00;;;;;;;16.65;6.05;;;;;;;;;;5056304;28;20045;-88
2022/11/25 06:21:26;;;;;;;10.75;5.68;;;;;;;;;;5056429;28;20044;-90
2022/11/25 06:23:52;;;;;;;18.58;6.53;;;;;;;;;;5056554;28;20127;-89
2022/11/25 06:26:19;;;;;;;18.60;6.43;;;;;;;;;;5056921;28;20144;-90
2022/11/25 06:28:46;;;;;;;18.10;6.00;;;;;;;;;;5056979;28;20414;-88
2022/11/25 06:31:13;;;;;;;22.13;6.68;;;;;;;;;;5056374;28;20496;-89
2022/11/25 06:33:39;;;;;;;16.25;6.18;;;;;;;;;;5057229;28;20048;-88
2022/11/25 06:36:06;;;;;;;21.50;5.97;;;;;;;;;;5058104;28;20143;-90
2022/11/25 06:38:32;;;;;;;15.32;5.30;;;;;;;;;;5056161;28;20068;-88
2022/11/25 06:41:03;;;;;;;14.80;5.38;;;;;;;;;;5056387;28;20052;-89
2022/11/25 06:43:29;;;;;;;11.15;6.28;;;;;;;;;;5073273;28;20044;-88
2022/11/25 06:45:55;;;;;;;12.77;5.10;;;;;;;;;;5056253;28;20056;-89
2022/11/25 06:48:21;;;;;;;18.88;4.95;;;;;;;;;;5056316;28;20046;-89
2022/11/25 06:50:55;;;;;;;11.27;5.57;;;;;;;;;;5056080;28;20135;-91
2022/11/25 06:53:21;;;;;;;12.80;5.80;;;;;;;;;;5056333;28;20056;-91
2022/11/25 06:55:47;;;;;;;19.23;5.50;;;;;;;;;;5056419;28;20052;-89
2022/11/25 06:58:13;;;;;;;13.80;5.80;;;;;;;;;;5056568;28;20047;-90
2022/11/25 07:00:39;;;;;;;13.43;5.40;;;;;;;;;;5056905;28;20135;-90
2022/11/25 07:03:05;;;;;;;14.98;5.40;;;;;;;;;;5056515;28;20040;-90
2022/11/25 07:05:31;;;;;;;17.38;6.00;;;;;;;;;;5073164;28;20055;-88
2022/11/25 07:07:57;;;;;;;14.32;6.60;;;;;;;;;;5056340;28;20052;-89
2022/11/25 07:10:23;;;;;;;8.27;4.22;;;;;;;;;;5055949;28;20044;-91
2022/11/25 07:12:49;;;;;;;12.73;5.05;;;;;;;;;;5056370;28;20505;-92
2022/11/25 07:15:15;;;;;;;13.13;5.25;;;;;;;;;;5055780;28;20400;-91
2022/11/25 07:17:41;;;;;;;12.40;5.28;;;;;;;;;;5055623;28;20198;-88
2022/11/25 07:20:08;;;;;;;17.25;5.38;;;;;;;;;;5072109;28;20048;-89
2022/11/25 07:22:39;;;;;;;15.60;5.72;;;;;;;;;;5055766;28;20033;-93
2022/11/25 07:25:08;;;;;;;10.02;5.25;;;;;;;;;;5056327;28;20511;-94
2022/11/25 07:27:34;;;;;;;12.77;5.90;;;;;;;;;;5056073;28;20136;-92
2022/11/25 07:30:00;;;;;;;12.35;5.10;;;;;;;;;;5056657;28;20493;-93
2022/11/25 07:32:26;;;;;;;12.13;5.10;;;;;;;;;;5061360;28;20135;-93
2022/11/25 07:34:54;;;;;;;12.63;5.45;;;;;;;;;;5060671;28;20132;-95
2022/11/25 07:37:20;;;;;;;10.25;4.80;;;;;;;;;;5060604;28;20041;-94
2022/11/25 07:39:47;;;;;;;13.05;5.05;;;;;;;;;;5061774;28;20467;-95
2022/11/25 07:42:13;;;;;;;13.60;5.72;;;;;;;;;;5060471;28;20076;-95
2022/11/25 07:44:39;;;;;;;8.38;4.47;;;;;;;;;;5062410;28;20108;-96
2022/11/25 07:47:05;;;;;;;13.98;5.00;;;;;;;;;;5060563;28;20090;-96
2022/11/25 07:49:31;;;;;;;10.57;4.60;;;;;;;;;;5060810;28;20032;-93
2022/11/25 07:52:04;;;;;;;11.63;5.63;;;;;;;;;;5076798;28;20056;-94
2022/11/25 07:54:58;;;;;;;9.68;5.13;;;;;;;;;;5060094;28;20481;-94
2022/11/25 07:57:42;;;;;;;10.88;5.07;;;;;;;;;;5076549;28;20130;-94
2022/11/25 08:00:10;;;;;;;9.00;4.40;;;;;;;;;;5085229;22;20080;-93
2022/11/25 08:02:41;;;;;;;14.88;6.43;;;;;;;;;;5040501;28;20048;-93
2022/11/25 08:05:07;;;;;;;11.55;4.40;;;;;;;;;;5024656;28;20048;-94
2022/11/25 08:07:34;;;;;;;9.52;4.50;;;;;;;;;;5023159;28;20045;-94
2022/11/25 08:10:00;;;;;;;9.63;4.70;;;;;;;;;;5030901;28;20055;-96
2022/11/25 08:12:26;;;;;;;13.43;4.70;;;;;;;;;;5040330;23;20057;-94
2022/11/25 08:14:56;;;;;;;8.73;4.07;;;;;;;;;;5030823;28;20091;-95
2022/11/25 08:17:22;;;;;;;10.95;4.60;;;;;;;;;;5041637;28;20044;-95
2022/11/25 08:19:57;;;;;;;10.25;4.47;;;;;;;;;;5024947;28;20047;-96
2022/11/25 08:22:32;;;;;;;12.63;4.57;;;;;;;;;;5024750;28;20037;-95
2022/11/25 08:24:59;;;;;;;15.00;5.15;;;;;;;;;;5023853;28;20049;-96
2022/11/25 08:27:25;;;;;;;17.08;4.50;;;;;;;;;;5026118;28;20045;-94
2022/11/25 08:29:51;;;;;;;6.78;4.22;;;;;;;;;;5024553;28;20092;-94
2022/11/25 08:32:31;;;;;;;12.07;5.00;;;;;;;;;;5044476;28;20071;-94
2022/11/25 08:35:00;;;;;;;12.40;4.67;;;;;;;;;;4987511;28;20054;-94
2022/11/25 08:37:26;;;;;;;10.50;4.25;;;;;;;;;;4986421;28;20064;-93
2022/11/25 08:39:55;;;;;;;11.02;4.68;;;;;;;;;;4986579;28;20065;-92
2022/11/25 08:42:21;;;;;;;11.77;4.45;;;;;;;;;;4980756;28;20395;-96
2022/11/25 08:44:51;;;;;;;10.88;5.07;;;;;;;;;;4981647;28;20145;-91
2022/11/25 08:47:17;;;;;;;10.25;4.03;;;;;;;;;;4979135;28;20509;-92
2022/11/25 08:49:43;;;;;;;10.48;4.15;;;;;;;;;;4980357;28;20431;-95
2022/11/25 08:52:09;;;;;;;9.52;4.53;;;;;;;;;;4980433;28;20053;-93
2022/11/25 08:54:36;;;;;;;7.68;4.05;;;;;;;;;;4979495;28;20178;-92
2022/11/25 08:57:02;;;;;;;8.75;3.63;;;;;;;;;;4978911;28;20054;-91
2022/11/25 08:59:28;;;;;;;11.93;4.15;;;;;;;;;;4978451;28;20054;-91
2022/11/25 09:01:54;;;;;;;9.20;3.95;;;;;;;;;;4978922;28;20612;-94
2022/11/25 09:04:34;;;;;;;10.70;4.25;;;;;;;;;;4978915;28;20038;-93
2022/11/25 09:07:01;;;;;;;7.25;4.25;;;;;;;;;;5019636;28;20057;-92
2022/11/25 09:09:27;;;;;;;10.88;3.75;;;;;;;;;;5022118;28;20045;-93
2022/11/25 09:11:53;;;;;;;9.75;4.55;;;;;;;;;;5037805;28;20410;-91
2022/11/25 09:14:36;;;;;;;9.27;5.30;;;;;;;;;;5021328;28;20045;-90
2022/11/25 09:17:02;;;;;;;14.57;4.68;;;;;;;;;;5022545;28;20045;-92
2022/11/25 09:19:28;;;;;;;12.25;4.72;;;;;;;;;;5038307;28;20077;-93
2022/11/25 09:21:54;;;;;;;6.25;4.13;;;;;;;;;;5038312;28;20049;-93
2022/11/25 09:24:20;;;;;;;12.55;5.30;;;;;;;;;;5021832;28;20131;-93
2022/11/25 09:26:48;;;;;;;11.65;5.55;;;;;;;;;;5022337;28;20378;-93
2022/11/25 09:29:14;;;;;;;5.70;3.75;;;;;;;;;;5039009;28;20048;-92
2022/11/25 09:31:40;;;;;;;9.70;4.00;;;;;;;;;;5022403;28;20056;-94
2022/11/25 09:34:07;;;;;;;7.75;4.13;;;;;;;;;;5021936;28;20041;-95
2022/11/25 09:36:34;;;;;;;6.53;4.30;;;;;;;;;;5038367;28;20131;-92
2022/11/25 09:39:00;;;;;;;8.60;4.07;;;;;;;;;;5022501;28;20041;-95
2022/11/25 09:47:37;;;;;;;8.60;4.07;;;;;;;;;;5038073;28;20133;-95
2022/11/25 09:50:31;;;;;;;11.75;3.75;;;;;;;;;;5021612;28;20139;-92
2022/11/25 09:52:57;;;;;;;8.27;4.38;;;;;;;;;;5037371;28;20037;-94
2022/11/25 09:55:24;;;;;;;13.98;3.60;;;;;;;;;;5021106;28;20554;-92
2022/11/25 09:58:15;;;;;;;7.22;2.55;;;8.70;99.90;;;;;;5021102;28;20087;-91
2022/11/25 10:00:51;;;;;;;6.75;3.30;;;;;;;;;;5023013;28;20039;-92
2022/11/25 10:03:32;;;;;;;6.03;3.20;;;;;;;;;;5024084;28;20056;-91
2022/11/25 10:06:02;;;;;;;10.57;4.25;;;;;;;;;;5023777;28;20131;-91
2022/11/25 10:08:51;;;;;;;5.55;3.70;;;;;;;;;;5021998;28;20106;-92
2022/11/25 10:11:20;;;;;;;11.30;3.47;;;;;;;;;;5039283;28;20152;-92
2022/11/25 10:14:03;;;;;;;8.52;3.47;;;;;;;;;;5022270;28;20080;-91
2022/11/25 10:16:35;;;;;;;15.13;3.92;;;;;;;;;;5021898;28;20048;-91
2022/11/25 10:19:24;;;;;;;5.80;3.72;;;;;;;;;;5037620;28;20508;-91
2022/11/25 10:21:53;;;;;;;10.93;3.60;;;;;;;;;;4942273;28;20134;-91
2022/11/25 10:24:22;;;;;;;19.70;4.38;;;;;;;;;;4957876;28;20579;-90
2022/11/25 10:26:58;;;;;;;10.85;3.78;;;;;;;;;;4957942;28;20077;-90
2022/11/25 10:29:31;;;;;;;6.53;3.15;;;;;;;;;;4958952;28;20050;-92
2022/11/25 10:32:18;;;;;;;6.15;3.90;;;;;;;;;;4958157;28;20046;-92
2022/11/25 10:35:08;;;;;;;11.00;3.53;;;;;;;;;;4957590;28;20439;-91
2022/11/25 10:52:50;;;;;;;8.23;3.60;;;;;;;;;;5223564;22;20045;-89
2022/11/25 10:55:47;;;;;;;7.45;3.33;;;;;;;;;;5020505;28;20107;-90
2022/11/25 10:58:50;;;;;;;8.20;3.83;;;9.70;99.90;;;;;;4960752;28;20047;-91
2022/11/25 11:01:27;;;;;;;11.40;2.83;;;;;;;;;;4946207;28;20043;-88
2022/11/25 11:04:26;;;;;;;7.68;4.45;;;;;;;;;;4975056;28;20047;-89
2022/11/25 11:07:06;;;;;;;6.30;3.00;;;;;;;;;;4956481;28;20055;-90
2022/11/25 11:13:32;;;;;;;5.93;3.38;;;;;;;;;;5323591;22;20064;-93
2022/11/25 11:16:19;;;;;;;;;;;;;;;;;;;;;
2022/11/25 11:18:52;;;;;;;9.93;3.20;;;;;;;;;;5015740;28;20093;-90
2022/11/25 11:21:42;;;;;;;;;;;;;;;;;;;;;
2022/11/25 11:40:04;;;;;;;10.43;3.42;;;;;;;;;;4869398;26;20040;-90
2022/11/25 13:04:19;;;;;;;11.93;3.78;;;;;;;;;;5198789;22;20136;-91
2022/11/25 13:07:14;;;;;;;20.75;4.35;;;;;;;;;;4996274;28;20554;-90
2022/11/25 13:10:09;;;;;;;;;;;;;;;;;;;;;
2022/11/25 13:12:45;;;;;;;8.13;2.85;;;;;;;;;;5015472;28;20054;-89
2022/11/25 13:15:46;;;;;;;13.35;3.08;;;;;;;;;;5000530;28;20042;-91
2022/11/25 13:18:18;;;;;;;14.38;3.47;;;;;;;;;;4940593;29;20059;-91
2022/11/25 13:20:52;;;;;;;18.67;3.38;;;;;;;;;;4925479;28;20106;-87
2022/11/25 13:23:18;;;;;;;9.18;3.00;;;;;;;;;;4924088;29;20133;-90
2022/11/25 13:25:46;;;;;;;12.07;2.45;;;;;;;;;;4924358;29;20160;-89
2022/11/25 13:28:30;;;;;;;13.38;3.03;;;;;;;;;;4939423;29;20146;-89
2022/11/25 13:31:21;;;;;;;15.02;3.03;;;;;;;;;;4925464;29;20051;-90
2022/11/25 13:34:07;;;;;;;14.00;3.20;;;;;;;;;;4926005;29;20051;-89
2022/11/25 13:36:59;;;;;;;9.18;2.72;;;;;;;;;;4926465;29;20126;-89
2022/11/25 13:39:28;;;;;;;17.48;3.65;;;;;;;;;;4924822;29;20051;-90
2022/11/25 13:42:14;;;;;;;11.18;3.20;;;;;;;;;;4923866;29;20055;-90
2022/11/25 13:45:02;;;;;;;12.73;3.40;;;;;;;;;;4923639;29;20043;-91
2022/11/25 13:47:37;;;;;;;9.65;3.53;;;;;;;;;;4865441;29;20053;-88
2022/11/25 13:50:35;;;;;;;11.23;3.08;;;;;;;;;;4848346;29;20195;-88
2022/11/25 13:53:24;;;;;;;13.43;3.75;;;;;;;;;;4819543;29;20064;-88
2022/11/25 13:56:23;;;;;;;9.48;2.90;;;;;;;;;;4809001;29;20053;-92
2022/11/25 13:59:12;;;;;;;11.95;4.05;;;10.90;99.90;;;;;;4823362;29;20147;-90
2022/11/25 14:02:04;;;;;;;13.88;3.15;;;;;;;;;;4824143;29;20055;-89
2022/11/25 14:04:59;;;;;;;13.02;3.33;;;;;;;;;;4806871;29;20058;-88
2022/11/25 14:07:58;;;;;;;9.38;2.83;;;;;;;;;;4810864;29;20134;-89
2022/11/25 14:10:44;;;;;;;13.77;3.75;;;;;;;;;;4805079;29;20063;-89
2022/11/25 14:13:26;;;;;;;16.45;2.90;;;;;;;;;;4790492;29;20094;-90
2022/11/25 14:16:06;;;;;;;15.98;3.15;;;;;;;;;;4774908;29;20062;-90
2022/11/25 14:18:40;;;;;;;14.82;3.45;;;;;;;;;;4789958;29;20059;-89
2022/11/25 14:21:11;;;;;;;10.40;2.65;;;;;;;;;;4774966;29;20229;-90
2022/11/25 14:23:53;;;;;;;8.15;2.65;;;;;;;;;;4794352;29;20094;-89
2022/11/25 14:26:33;;;;;;;9.05;3.25;;;;;;;;;;4826408;29;20058;-89
2022/11/25 14:29:21;;;;;;;9.25;2.35;;;;;;;;;;4846245;29;20154;-89
2022/11/25 14:31:50;;;;;;;17.10;2.92;;;;;;;;;;4880452;29;20045;-90
2022/11/25 14:34:26;;;;;;;8.40;3.17;;;;;;;;;;4918649;29;20055;-89
2022/11/25 14:37:15;;;;;;;18.95;3.55;;;;;;;;;;4919181;29;20138;-89
2022/11/25 14:40:18;;;;;;;11.43;3.03;;;10.60;99.90;;;;;;4927577;29;20060;-88
2022/11/25 14:42:47;;;;;;;19.88;2.97;;;;;;;;;;4978202;28;20403;-88
2022/11/25 14:45:24;;;;;;;11.48;2.78;;;;;;;;;;4980318;28;20128;-91
2022/11/25 14:47:50;;;;;;;11.80;3.45;;;;;;;;;;4984249;28;20514;-89
2022/11/25 14:50:18;;;;;;;12.18;2.60;;;;;;;;;;4982467;28;20042;-89
2022/11/25 14:52:48;;;;;;;10.00;2.65;;;;;;;;;;4981803;28;20054;-90
2022/11/25 14:55:23;;;;;;;10.25;3.13;;;;;;;;;;5031507;23;20370;-89
2022/11/25 14:58:15;;;;;;;13.38;2.85;;;;;;;;;;5036926;28;20442;-90
2022/11/25 15:01:06;;;;;;;13.55;3.67;;;;;;;;;;5037776;28;20045;-92
2022/11/25 15:03:41;;;;;;;12.48;4.22;;;;;;;;;;5037089;28;20045;-92
2022/11/25 15:06:12;;;;;;;9.85;2.50;;;;;;;;;;5036671;28;20138;-88
2022/11/25 15:09:01;;;;;;;13.50;4.45;;;;;;;;;;5054868;28;20206;-90
2022/11/25 15:11:30;;;;;;;16.15;3.08;;;;;;;;;;4939847;28;20065;-92
2022/11/25 15:13:59;;;;;;;12.65;3.10;;;;;;;;;;4940794;28;20435;-92
2022/11/25 15:16:30;;;;;;;17.40;3.05;;;;;;;;;;4940810;28;20055;-87
2022/11/25 15:18:58;;;;;;;10.32;3.28;;;;;;;;;;4972630;28;20051;-89
2022/11/25 15:21:31;;;;;;;15.55;4.10;;;;;;;;;;4941224;28;20051;-89
2022/11/25 15:23:57;;;;;;;11.52;3.30;;;;;;;;;;4940626;28;20046;-89
2022/11/25 15:26:27;;;;;;;13.90;3.28;;;;;;;;;;4940917;28;20105;-89
2022/11/25 15:28:57;;;;;;;12.65;4.03;;;;;;;;;;4940384;28;20488;-90
2022/11/25 15:31:30;;;;;;;15.48;3.10;;;;;;;;;;4941322;28;20047;-88
2022/11/25 15:33:59;;;;;;;17.17;3.83;;;;;;;;;;4940222;28;20058;-88
2022/11/25 15:36:25;;;;;;;11.68;4.10;;;;;;;;;;4956357;28;20055;-87
2022/11/25 15:38:53;;;;;;;10.93;3.72;;;;;;;;;;4956048;28;20065;-89
2022/11/25 15:57:35;;;;;;;10.30;4.30;;;;;;;;;;5122210;22;20068;-94
2022/11/25 16:00:18;;;;;;;16.00;4.13;;;;;;;;;;4983540;28;20049;-92
2022/11/25 16:19:29;;;;;;;19.60;4.18;;;;;;;;;;4899610;29;20052;-89
2022/11/25 16:22:32;;;;;;;;;;;;;;;;;;;;;
2022/11/25 16:29:14;;;;;;;11.35;3.45;;;9.00;99.90;;;;;;4842496;29;20065;-91
2022/11/25 17:02:51;;;;;;;15.80;5.43;;;;;;;;;;6311000;22;20098;-88
2022/11/25 17:05:19;;;;;;;17.70;4.53;;;;;;;;;;6179140;22;1298827;-89
2022/11/25 17:07:45;;;;;;;19.60;4.65;;;;;;;;;;6233893;22;20069;-86
2022/11/25 17:10:11;;;;;;;15.50;4.95;;;;;;;;;;6233403;22;20019;-87
2022/11/25 17:12:38;;;;;;;19.20;4.70;;;;;;;;;;6260380;22;20144;-89
2022/11/25 17:15:05;;;;;;;12.45;4.40;;;;;;;;;;6258858;22;20024;-90
2022/11/25 17:17:32;;;;;;;14.15;4.68;;;;;;;;;;6286298;22;20015;-89
2022/11/25 17:19:58;;;;;;;15.60;5.15;;;;;;;;;;6233707;22;20015;-90
2022/11/25 17:22:25;;;;;;;19.50;4.55;;;;;;;;;;6233424;22;20019;-89
2022/11/25 17:24:51;;;;;;;16.75;4.82;;;;;;;;;;6233658;22;20011;-88
2022/11/25 17:27:37;;;;;;;13.98;4.18;;;;;;;;;;6233504;22;20020;-86
2022/11/25 17:30:05;;;;;;;16.58;3.88;;;;;;;;;;6285479;22;20026;-87
2022/11/25 17:32:32;;;;;;;20.02;4.60;;;;;;;;;;6286896;22;20433;-88
2022/11/25 17:34:58;;;;;;;28.60;4.90;;;;;;;;;;6233480;22;20015;-93
2022/11/25 17:37:24;;;;;;;13.07;4.57;;;;;;;;;;6258482;22;20020;-92
2022/11/25 17:39:54;;;;;;;14.20;4.65;;;;;;;;;;6286791;22;20016;-90
2022/11/25 17:42:30;;;;;;;15.60;4.22;;;;;;;;;;6234588;22;20016;-89
2022/11/25 17:44:56;;;;;;;15.80;4.47;;;;;;;;;;6285800;22;20336;-91
2022/11/25 17:47:22;;;;;;;14.52;5.50;;;;;;;;;;6258936;22;20089;-89
2022/11/25 17:49:48;;;;;;;19.75;4.43;;;;;;;;;;6258664;22;20066;-90
2022/11/25 17:52:15;;;;;;;24.73;6.20;;;;;;;;;;6233469;22;20019;-90
2022/11/25 17:54:41;;;;;;;16.25;5.30;;;;;;;;;;6258809;22;20059;-86
2022/11/25 17:57:10;;;;;;;19.70;5.50;;;;;;;;;;6230481;22;20047;-87
2022/11/25 17:59:36;;;;;;;12.75;4.63;;;;;;;;;;6251768;22;20397;-87
2022/11/25 18:02:03;;;;;;;14.40;5.25;;;;;;;;;;6226433;22;20016;-90
2022/11/25 18:04:34;;;;;;;14.35;5.03;;;;;;;;;;6226440;22;20019;-92
2022/11/25 18:07:00;;;;;;;15.00;5.63;;;;;;;;;;6226216;22;20020;-91
2022/11/25 18:09:26;;;;;;;20.50;5.38;;;;;;;;;;6226127;22;20069;-91